createdAt,value
2023-10-08T00:01:22.914Z,2.50
2023-10-08T00:03:50.755Z,2.67
2023-10-08T00:06:21.492Z,2.88
2023-10-08T00:08:49.564Z,2.25
2023-10-08T00:11:19.993Z,2.92
2023-10-08T00:13:49.425Z,2.63
2023-10-08T00:16:17.931Z,2.50
2023-10-08T00:18:52.253Z,2.35
2023-10-08T00:21:29.031Z,2.25
2023-10-08T00:23:59.729Z,2.72
2023-10-08T00:26:29.209Z,2.72
2023-10-08T00:29:08.163Z,2.80
2023-10-08T00:31:39.504Z,2.75
2023-10-08T00:34:06.744Z,2.70
2023-10-08T00:36:35.230Z,2.63
2023-10-08T00:39:09.712Z,2.70
2023-10-08T00:41:39.190Z,2.42
2023-10-08T00:44:09.806Z,2.97
2023-10-08T00:46:43.671Z,2.92
2023-10-08T00:49:23.238Z,3.08
2023-10-08T00:52:09.682Z,2.78
2023-10-08T00:54:55.752Z,2.70
2023-10-08T00:57:27.479Z,2.95
2023-10-08T00:59:54.661Z,2.67
2023-10-08T01:02:29.065Z,3.15
2023-10-08T01:04:57.515Z,2.92
2023-10-08T01:07:26.261Z,2.80
2023-10-08T01:09:59.694Z,2.47
2023-10-08T01:12:37.003Z,3.03
2023-10-08T01:15:22.985Z,2.97
2023-10-08T01:17:59.169Z,2.97
2023-10-08T01:20:35.778Z,3.05
2023-10-08T01:23:17.694Z,2.63
2023-10-08T01:25:51.850Z,2.58
2023-10-08T01:28:32.218Z,2.38
2023-10-08T01:31:05.214Z,2.72
2023-10-08T01:33:33.328Z,2.97
2023-10-08T01:36:04.315Z,3.13
2023-10-08T01:38:36.276Z,2.17
2023-10-08T01:41:19.620Z,2.70
2023-10-08T01:43:47.364Z,2.53
2023-10-08T01:46:16.692Z,2.60
2023-10-08T01:48:45.933Z,2.47
2023-10-08T01:51:20.558Z,2.50
2023-10-08T01:53:49.046Z,3.00
2023-10-08T01:56:16.235Z,3.20
2023-10-08T01:58:43.244Z,2.92
2023-10-08T02:01:13.334Z,2.65
2023-10-08T02:03:42.995Z,2.45
2023-10-08T02:06:10.292Z,2.58
2023-10-08T02:08:37.773Z,2.55
2023-10-08T02:11:05.176Z,2.83
2023-10-08T02:13:32.209Z,3.08
2023-10-08T02:15:59.324Z,2.70
2023-10-08T02:18:26.847Z,2.90
2023-10-08T02:20:54.351Z,3.00
2023-10-08T02:23:21.612Z,3.30
2023-10-08T02:25:49.170Z,3.03
2023-10-08T02:28:16.930Z,2.88
2023-10-08T02:30:44.442Z,3.35
2023-10-08T02:33:18.484Z,2.92
2023-10-08T02:35:47.596Z,2.90
2023-10-08T02:38:18.501Z,2.90
2023-10-08T02:43:17.635Z,2.78
2023-10-08T02:45:50.765Z,2.80
2023-10-08T02:48:19.276Z,3.30
2023-10-08T02:50:47.405Z,2.70
2023-10-08T02:53:21.364Z,3.45
2023-10-08T02:55:48.884Z,3.05
2023-10-08T02:58:16.351Z,2.90
2023-10-08T03:00:47.897Z,2.47
2023-10-08T03:03:19.834Z,3.03
2023-10-08T03:05:53.532Z,2.58
2023-10-08T03:08:24.761Z,2.85
2023-10-08T03:10:57.254Z,2.38
2023-10-08T03:13:27.239Z,3.10
2023-10-08T03:16:03.092Z,2.97
2023-10-08T03:18:37.585Z,2.88
2023-10-08T03:21:07.008Z,2.88
2023-10-08T03:23:35.516Z,3.17
2023-10-08T03:26:33.453Z,3.35
2023-10-08T03:29:08.677Z,3.00
2023-10-08T03:31:48.079Z,2.70
2023-10-08T03:34:20.213Z,3.15
2023-10-08T03:36:50.764Z,2.70
2023-10-08T03:42:00.057Z,2.95
2023-10-08T03:44:30.643Z,2.83
2023-10-08T03:46:58.297Z,3.40
2023-10-08T03:49:25.300Z,2.55
2023-10-08T03:51:53.593Z,3.63
2023-10-08T03:54:31.313Z,2.80
2023-10-08T03:56:58.952Z,2.92
2023-10-08T03:59:41.364Z,3.28
2023-10-08T04:02:15.683Z,3.10
2023-10-08T04:04:50.216Z,2.83
2023-10-08T04:07:30.107Z,2.60
2023-10-08T04:10:11.292Z,2.70
2023-10-08T04:12:45.450Z,2.80
2023-10-08T04:15:17.480Z,2.55
2023-10-08T04:17:44.957Z,2.70
2023-10-08T04:20:39.059Z,2.83
2023-10-08T04:23:15.012Z,2.08
2023-10-08T04:25:44.896Z,2.75
2023-10-08T04:28:15.398Z,2.60
2023-10-08T04:30:42.777Z,2.40
2023-10-08T04:33:14.010Z,2.78
2023-10-08T04:35:51.975Z,2.88
2023-10-08T04:38:22.977Z,2.97
2023-10-08T04:40:52.479Z,2.95
2023-10-08T04:43:26.768Z,2.55
2023-10-08T04:46:09.744Z,2.55
2023-10-08T04:48:37.991Z,2.60
2023-10-08T04:51:05.120Z,2.70
2023-10-08T04:53:38.217Z,2.40
2023-10-08T04:56:18.028Z,2.75
2023-10-08T04:58:49.862Z,3.22
2023-10-08T05:01:20.310Z,3.15
2023-10-08T05:06:45.705Z,2.50
2023-10-08T05:09:20.013Z,3.00
2023-10-08T05:11:51.960Z,2.95
2023-10-08T05:14:34.447Z,2.80
2023-10-08T05:17:23.340Z,3.03
2023-10-08T05:19:51.109Z,3.20
2023-10-08T05:22:19.961Z,3.85
2023-10-08T05:25:09.476Z,3.17
2023-10-08T05:27:39.608Z,3.78
2023-10-08T05:30:17.485Z,3.55
2023-10-08T05:33:08.124Z,3.78
2023-10-08T05:35:45.803Z,3.30
2023-10-08T05:38:31.541Z,3.03
2023-10-08T05:40:59.695Z,2.75
2023-10-08T05:43:38.843Z,2.63
2023-10-08T05:46:23.398Z,2.80
2023-10-08T05:49:09.443Z,3.15
2023-10-08T05:51:48.061Z,3.33
2023-10-08T05:54:33.195Z,3.35
2023-10-08T05:57:15.906Z,5.07
2023-10-08T05:59:57.764Z,5.72
2023-10-08T06:02:39.528Z,5.90
2023-10-08T06:05:15.286Z,5.72
2023-10-08T06:07:55.337Z,4.43
2023-10-08T06:10:32.258Z,3.73
2023-10-08T06:13:10.806Z,3.35
2023-10-08T06:15:57.675Z,3.03
2023-10-08T06:18:31.065Z,3.03
2023-10-08T06:21:01.183Z,3.38
2023-10-08T06:23:36.444Z,3.28
2023-10-08T06:26:15.414Z,3.00
2023-10-08T06:28:46.853Z,2.92
2023-10-08T06:31:17.432Z,3.28
2023-10-08T06:36:12.771Z,2.90
2023-10-08T06:38:42.416Z,2.80
2023-10-08T06:41:13.914Z,2.88
2023-10-08T06:43:49.314Z,2.75
2023-10-08T06:46:22.386Z,2.97
2023-10-08T06:48:50.489Z,3.00
2023-10-08T06:51:20.302Z,3.03
2023-10-08T06:53:49.448Z,3.38
2023-10-08T06:56:19.453Z,2.65
2023-10-08T06:58:50.179Z,2.53
2023-10-08T07:01:25.492Z,3.05
2023-10-08T07:03:57.576Z,3.13
2023-10-08T07:06:27.327Z,2.78
2023-10-08T07:08:56.476Z,3.47
2023-10-08T07:11:24.284Z,3.10
2023-10-08T07:13:52.572Z,2.92
2023-10-08T07:16:22.088Z,2.70
2023-10-08T07:19:02.524Z,2.50
2023-10-08T07:21:30.133Z,2.53
2023-10-08T07:23:59.049Z,2.67
2023-10-08T07:26:41.657Z,2.85
2023-10-08T07:29:12.602Z,2.53
2023-10-08T07:31:43.814Z,2.30
2023-10-08T07:34:19.837Z,2.67
2023-10-08T07:36:52.509Z,2.53
2023-10-08T07:39:34.355Z,2.55
2023-10-08T07:42:06.701Z,2.65
2023-10-08T07:44:37.215Z,2.25
2023-10-08T07:47:06.192Z,2.08
2023-10-08T07:49:33.623Z,2.03
2023-10-08T07:52:00.750Z,2.33
2023-10-08T07:54:35.234Z,2.60
2023-10-08T07:57:20.188Z,2.40
2023-10-08T07:59:48.684Z,2.20
2023-10-08T08:02:19.183Z,2.60
2023-10-08T08:04:52.149Z,2.88
2023-10-08T08:07:20.824Z,2.28
2023-10-08T08:09:53.640Z,3.15
2023-10-08T08:12:23.236Z,3.05
2023-10-08T08:14:51.804Z,2.75
2023-10-08T08:17:23.721Z,2.95
2023-10-08T08:19:53.774Z,3.20
2023-10-08T08:22:24.284Z,2.88
2023-10-08T08:25:00.905Z,2.20
2023-10-08T08:27:33.082Z,2.67
2023-10-08T08:30:16.730Z,2.55
2023-10-08T08:32:46.080Z,2.67
2023-10-08T08:35:17.537Z,2.72
2023-10-08T08:37:47.716Z,2.92
2023-10-08T08:40:20.545Z,2.80
2023-10-08T08:42:50.057Z,2.80
2023-10-08T08:45:23.679Z,2.92
2023-10-08T08:47:51.256Z,3.10
2023-10-08T08:50:20.256Z,2.65
2023-10-08T08:52:47.932Z,2.50
2023-10-08T08:55:16.163Z,2.80
2023-10-08T08:57:53.808Z,2.85
2023-10-08T09:00:21.990Z,3.13
2023-10-08T09:02:51.226Z,3.15
2023-10-08T09:05:24.841Z,2.92
2023-10-08T09:07:56.157Z,3.22
2023-10-08T09:10:29.078Z,2.97
2023-10-08T09:13:01.127Z,2.92
2023-10-08T09:15:29.450Z,3.00
2023-10-08T09:17:57.806Z,3.00
2023-10-08T09:20:25.085Z,2.90
2023-10-08T09:23:13.658Z,2.80
2023-10-08T09:25:46.440Z,2.50
2023-10-08T09:28:16.430Z,2.83
2023-10-08T09:30:46.772Z,2.80
2023-10-08T09:33:15.325Z,2.80
2023-10-08T09:35:46.712Z,2.67
2023-10-08T09:38:13.941Z,2.30
2023-10-08T09:40:42.952Z,2.90
2023-10-08T09:43:13.360Z,3.00
2023-10-08T09:45:48.325Z,2.92
2023-10-08T09:48:20.025Z,3.45
2023-10-08T09:50:49.236Z,2.97
2023-10-08T09:53:20.803Z,2.78
2023-10-08T09:55:56.528Z,2.78
2023-10-08T09:58:25.654Z,2.70
2023-10-08T10:00:58.171Z,2.92
2023-10-08T10:03:27.941Z,3.05
2023-10-08T10:05:59.591Z,3.25
2023-10-08T10:08:29.446Z,2.97
2023-10-08T10:11:01.209Z,3.13
2023-10-08T10:13:42.769Z,2.67
2023-10-08T10:16:23.223Z,2.42
2023-10-08T10:18:51.132Z,2.45
2023-10-08T10:21:18.272Z,2.38
2023-10-08T10:23:47.569Z,2.28
2023-10-08T10:26:33.612Z,2.67
2023-10-08T10:29:15.857Z,2.83
2023-10-08T10:31:47.612Z,2.90
2023-10-08T10:34:20.543Z,3.22
2023-10-08T10:36:50.223Z,3.25
2023-10-08T10:39:34.122Z,2.37
2023-10-08T10:42:03.411Z,3.00
2023-10-08T10:44:32.410Z,3.40
2023-10-08T10:47:24.576Z,2.83
2023-10-08T10:49:54.601Z,2.72
2023-10-08T10:52:32.605Z,3.13
2023-10-08T10:55:15.960Z,2.72
2023-10-08T10:57:58.092Z,2.40
2023-10-08T11:00:33.103Z,3.20
2023-10-08T11:03:05.682Z,2.97
2023-10-08T11:05:39.084Z,2.53
2023-10-08T11:08:09.723Z,2.35
2023-10-08T11:13:17.037Z,2.88
2023-10-08T11:15:51.153Z,2.53
2023-10-08T11:18:24.549Z,2.92
2023-10-08T11:21:02.285Z,2.97
2023-10-08T11:23:44.727Z,3.15
2023-10-08T11:26:13.208Z,2.90
2023-10-08T11:28:43.604Z,2.65
2023-10-08T11:31:20.677Z,3.15
2023-10-08T11:33:58.338Z,3.00
2023-10-08T11:36:44.012Z,2.60
2023-10-08T11:39:23.179Z,3.78
2023-10-08T11:41:58.803Z,2.85
2023-10-08T11:44:31.415Z,3.78
2023-10-08T11:47:05.724Z,4.57
2023-10-08T11:49:37.470Z,3.88
2023-10-08T11:52:04.981Z,3.55
2023-10-08T11:54:33.257Z,3.17
2023-10-08T11:57:04.035Z,2.55
2023-10-08T11:59:33.221Z,3.08
2023-10-08T12:02:00.360Z,2.65
2023-10-08T12:04:30.894Z,3.05
2023-10-08T12:06:58.294Z,3.88
2023-10-08T12:09:28.648Z,22.00
2023-10-08T12:14:31.255Z,17.83
2023-10-08T12:17:01.328Z,6.95
2023-10-08T12:19:28.418Z,3.95
2023-10-08T12:21:55.401Z,3.70
2023-10-08T12:24:22.406Z,3.35
2023-10-08T12:26:50.580Z,3.47
2023-10-08T12:29:20.252Z,2.90
2023-10-08T12:31:48.776Z,2.78
2023-10-08T12:34:16.369Z,3.22
2023-10-08T12:36:43.615Z,3.05
2023-10-08T12:39:16.017Z,2.78
2023-10-08T12:41:45.173Z,2.92
2023-10-08T12:44:13.672Z,2.67
2023-10-08T12:46:44.377Z,2.60
2023-10-08T12:49:11.577Z,2.88
2023-10-08T12:51:42.514Z,2.53
2023-10-08T12:54:12.483Z,2.70
2023-10-08T12:56:45.960Z,2.70
2023-10-08T12:59:21.999Z,2.42
2023-10-08T13:01:55.249Z,2.55
2023-10-08T13:04:29.764Z,2.72
2023-10-08T13:07:02.616Z,2.70
2023-10-08T13:09:37.770Z,2.80
2023-10-08T13:12:05.905Z,2.60
2023-10-08T13:14:36.249Z,2.65
2023-10-08T13:17:04.176Z,2.70
2023-10-08T13:19:34.925Z,2.70
2023-10-08T13:22:02.175Z,2.47
2023-10-08T13:24:30.280Z,2.85
2023-10-08T13:26:59.530Z,2.17
2023-10-08T13:29:28.069Z,2.28
2023-10-08T13:31:55.435Z,2.80
2023-10-08T13:34:22.619Z,2.78
2023-10-08T13:36:50.562Z,2.92
2023-10-08T13:39:20.717Z,2.47
2023-10-08T13:41:53.044Z,2.50
2023-10-08T13:44:29.908Z,2.65
2023-10-08T13:46:59.521Z,2.60
2023-10-08T13:49:30.610Z,2.72
2023-10-08T13:51:58.318Z,2.33
2023-10-08T13:54:31.227Z,2.92
2023-10-08T13:57:00.108Z,2.75
2023-10-08T13:59:27.878Z,3.13
2023-10-08T14:01:56.241Z,2.58
2023-10-08T14:04:35.979Z,2.40
2023-10-08T14:07:05.197Z,2.88
2023-10-08T14:09:33.157Z,2.78
2023-10-08T14:12:01.520Z,2.92
2023-10-08T14:14:34.472Z,2.58
2023-10-08T14:17:09.437Z,2.45
2023-10-08T14:19:40.399Z,2.58
2023-10-08T14:22:09.955Z,2.53
2023-10-08T14:24:39.293Z,2.75
2023-10-08T14:27:16.074Z,2.75
2023-10-08T14:29:47.566Z,2.72
2023-10-08T14:32:16.325Z,2.88
2023-10-08T14:34:55.316Z,2.65
2023-10-08T14:37:42.566Z,2.65
2023-10-08T14:40:28.374Z,3.05
2023-10-08T14:43:01.714Z,2.55
2023-10-08T14:45:36.545Z,2.78
2023-10-08T14:48:09.072Z,2.80
2023-10-08T14:50:36.272Z,3.08
2023-10-08T14:53:06.480Z,2.80
2023-10-08T14:55:36.524Z,2.80
2023-10-08T14:58:08.764Z,2.80
2023-10-08T15:00:39.781Z,2.90
2023-10-08T15:03:07.735Z,2.15
2023-10-08T15:05:37.893Z,2.58
2023-10-08T15:08:10.745Z,2.42
2023-10-08T15:10:38.403Z,2.55
2023-10-08T15:13:05.509Z,2.30
2023-10-08T15:15:35.676Z,2.75
2023-10-08T15:18:03.449Z,3.35
2023-10-08T15:20:33.408Z,2.85
2023-10-08T15:23:01.965Z,2.53
2023-10-08T15:25:29.026Z,2.72
2023-10-08T15:27:56.193Z,2.80
2023-10-08T15:30:23.995Z,2.75
2023-10-08T15:32:51.455Z,2.78
2023-10-08T15:35:21.403Z,2.55
2023-10-08T15:37:49.027Z,3.30
2023-10-08T15:40:20.229Z,2.92
2023-10-08T15:42:56.347Z,2.55
2023-10-08T15:45:25.944Z,2.35
2023-10-08T15:47:54.444Z,2.30
2023-10-08T15:50:22.781Z,3.30
2023-10-08T15:52:50.996Z,2.95
2023-10-08T15:55:20.234Z,2.90
2023-10-08T15:57:47.428Z,2.25
2023-10-08T16:00:15.831Z,2.80
2023-10-08T16:02:45.428Z,2.53
2023-10-08T16:05:13.714Z,2.90
2023-10-08T16:07:40.913Z,2.60
2023-10-08T16:10:09.021Z,2.60
2023-10-08T16:12:37.409Z,2.70
2023-10-08T16:15:06.413Z,2.30
2023-10-08T16:17:33.782Z,2.90
2023-10-08T16:20:10.236Z,3.33
2023-10-08T16:22:37.476Z,2.80
2023-10-08T16:25:06.984Z,2.80
2023-10-08T16:27:35.410Z,3.03
2023-10-08T16:30:03.676Z,3.20
2023-10-08T16:32:30.821Z,2.97
2023-10-08T16:34:57.854Z,2.67
2023-10-08T16:37:25.046Z,3.03
2023-10-08T16:39:52.208Z,3.85
2023-10-08T16:42:19.524Z,4.65
2023-10-08T16:44:46.811Z,4.97
2023-10-08T16:47:18.128Z,3.70
2023-10-08T16:49:45.392Z,3.90
2023-10-08T16:52:12.517Z,3.38
2023-10-08T16:54:39.644Z,3.03
2023-10-08T16:57:06.724Z,3.42
2023-10-08T16:59:33.754Z,3.60
2023-10-08T17:02:00.797Z,3.28
2023-10-08T17:04:27.802Z,3.28
2023-10-08T17:06:55.170Z,3.13
2023-10-08T17:09:23.267Z,3.53
2023-10-08T17:11:50.612Z,3.10
2023-10-08T17:14:21.095Z,3.30
2023-10-08T17:19:17.557Z,2.83
2023-10-08T17:21:45.560Z,3.35
2023-10-08T17:24:12.600Z,3.03
2023-10-08T17:26:39.766Z,3.47
2023-10-08T17:29:07.858Z,3.63
2023-10-08T17:31:40.871Z,3.75
2023-10-08T17:34:08.187Z,3.25
2023-10-08T17:36:37.300Z,3.08
2023-10-08T17:39:10.469Z,2.85
2023-10-08T17:41:38.066Z,3.08
2023-10-08T17:44:07.000Z,3.63
2023-10-08T17:46:34.894Z,3.42
2023-10-08T17:49:02.081Z,3.70
2023-10-08T17:51:29.352Z,3.40
2023-10-08T17:53:57.196Z,3.38
2023-10-08T17:56:24.290Z,3.15
2023-10-08T17:58:51.826Z,3.20
2023-10-08T18:01:19.121Z,3.67
2023-10-08T18:03:48.435Z,3.00
2023-10-08T18:06:16.896Z,2.73
2023-10-08T18:08:45.838Z,3.30
2023-10-08T18:11:13.048Z,3.10
2023-10-08T18:13:41.832Z,3.75
2023-10-08T18:16:13.889Z,3.25
2023-10-08T18:18:42.086Z,3.45
2023-10-08T18:21:19.481Z,3.20
2023-10-08T18:23:48.282Z,2.63
2023-10-08T18:26:19.140Z,3.30
2023-10-08T18:28:47.031Z,2.55
2023-10-08T18:31:16.459Z,3.20
2023-10-08T18:33:45.543Z,3.45
2023-10-08T18:36:14.123Z,3.17
2023-10-08T18:38:42.558Z,3.53
2023-10-08T18:41:11.967Z,3.35
2023-10-08T18:43:39.772Z,3.88
2023-10-08T18:46:11.446Z,2.78
2023-10-08T18:48:42.835Z,3.08
2023-10-08T18:51:14.186Z,3.67
2023-10-08T18:53:44.221Z,2.97
2023-10-08T18:56:15.389Z,3.90
2023-10-08T18:58:44.637Z,3.58
2023-10-08T19:01:15.599Z,3.20
2023-10-08T19:03:46.243Z,3.15
2023-10-08T19:08:41.986Z,3.42
2023-10-08T19:11:09.689Z,3.53
2023-10-08T19:13:40.823Z,3.50
2023-10-08T19:16:11.725Z,3.88
2023-10-08T19:18:42.586Z,3.05
2023-10-08T19:21:19.618Z,3.15
2023-10-08T19:23:47.625Z,3.00
2023-10-08T19:26:18.013Z,3.42
2023-10-08T19:28:46.807Z,3.60
2023-10-08T19:31:15.715Z,2.90
2023-10-08T19:33:45.970Z,3.58
2023-10-08T19:36:14.995Z,3.03
2023-10-08T19:38:42.825Z,3.38
2023-10-08T19:41:28.655Z,3.33
2023-10-08T19:43:55.753Z,3.22
2023-10-08T19:46:28.575Z,3.20
2023-10-08T19:48:56.186Z,3.67
2023-10-08T19:51:24.117Z,3.55
2023-10-08T19:53:54.307Z,3.20
2023-10-08T19:56:22.561Z,3.85
2023-10-08T19:58:49.684Z,3.45
2023-10-08T20:01:18.117Z,3.85
2023-10-08T20:03:46.471Z,4.05
2023-10-08T20:06:14.646Z,3.53
2023-10-08T20:08:42.158Z,3.30
2023-10-08T20:11:09.393Z,3.33
2023-10-08T20:13:36.837Z,3.20
2023-10-08T20:16:08.107Z,3.47
2023-10-08T20:18:36.958Z,3.42
2023-10-08T20:21:06.295Z,3.03
2023-10-08T20:23:39.271Z,3.72
2023-10-08T20:26:14.975Z,3.38
2023-10-08T20:28:42.883Z,3.50
2023-10-08T20:31:16.980Z,3.88
2023-10-08T20:33:45.380Z,3.15
2023-10-08T20:36:15.049Z,3.33
2023-10-08T20:38:43.195Z,3.50
2023-10-08T20:41:23.439Z,3.60
2023-10-08T20:43:51.532Z,2.63
2023-10-08T20:46:20.394Z,3.22
2023-10-08T20:48:49.398Z,4.20
2023-10-08T20:51:18.809Z,3.40
2023-10-08T20:53:48.142Z,3.88
2023-10-08T20:56:17.068Z,3.70
2023-10-08T20:58:44.960Z,4.10
2023-10-08T21:01:12.389Z,3.28
2023-10-08T21:03:39.948Z,3.35
2023-10-08T21:06:07.608Z,4.45
2023-10-08T21:08:36.274Z,3.42
2023-10-08T21:11:04.293Z,4.03
2023-10-08T21:13:31.803Z,3.47
2023-10-08T21:16:02.089Z,4.22
2023-10-08T21:18:31.265Z,3.80
2023-10-08T21:20:58.842Z,3.92
2023-10-08T21:23:25.887Z,4.03
2023-10-08T21:25:53.160Z,3.90
2023-10-08T21:28:20.297Z,3.25
2023-10-08T21:30:47.376Z,3.85
2023-10-08T21:33:14.777Z,3.30
2023-10-08T21:35:44.318Z,3.90
2023-10-08T21:38:11.948Z,3.60
2023-10-08T21:40:39.895Z,3.22
2023-10-08T21:43:08.630Z,3.70
2023-10-08T21:45:36.334Z,3.78
2023-10-08T21:48:04.248Z,3.88
2023-10-08T21:50:31.865Z,3.60
2023-10-08T21:52:58.883Z,3.28
2023-10-08T21:55:26.310Z,3.50
2023-10-08T21:57:53.947Z,3.75
2023-10-08T22:00:24.547Z,3.80
2023-10-08T22:03:03.116Z,3.58
2023-10-08T22:05:31.999Z,4.07
2023-10-08T22:08:00.483Z,3.90
2023-10-08T22:10:29.094Z,4.22
2023-10-08T22:12:59.744Z,3.60
2023-10-08T22:15:28.096Z,3.63
2023-10-08T22:18:03.020Z,4.45
2023-10-08T22:20:40.069Z,3.42
2023-10-08T22:23:16.015Z,4.13
2023-10-08T22:25:50.003Z,3.85
2023-10-08T22:28:20.681Z,4.18
2023-10-08T22:30:52.855Z,3.85
2023-10-08T22:33:27.003Z,4.30
2023-10-08T22:35:58.656Z,4.35
2023-10-08T22:38:30.261Z,3.53
2023-10-08T22:41:00.492Z,4.22
2023-10-08T22:43:35.432Z,4.37
2023-10-08T22:46:09.996Z,4.60
2023-10-08T22:48:44.670Z,4.03
2023-10-08T22:51:24.097Z,4.03
2023-10-08T22:53:53.005Z,4.20
2023-10-08T22:56:20.537Z,3.38
2023-10-08T22:58:49.064Z,3.55
2023-10-08T23:01:20.643Z,3.85
2023-10-08T23:03:53.703Z,4.63
2023-10-08T23:06:25.105Z,4.15
2023-10-08T23:08:55.659Z,4.03
2023-10-08T23:11:22.913Z,4.50
2023-10-08T23:13:51.467Z,3.80
2023-10-08T23:16:22.495Z,4.00
2023-10-08T23:18:52.257Z,3.97
2023-10-08T23:21:21.781Z,3.25
2023-10-08T23:23:49.966Z,4.03
2023-10-08T23:26:17.960Z,3.95
2023-10-08T23:28:46.439Z,3.97
2023-10-08T23:31:14.250Z,4.57
2023-10-08T23:33:48.211Z,4.60
2023-10-08T23:36:17.710Z,3.97
2023-10-08T23:38:54.028Z,3.72
2023-10-08T23:41:33.523Z,3.85
2023-10-08T23:44:03.912Z,4.47
2023-10-08T23:46:32.465Z,4.70
2023-10-08T23:49:06.383Z,4.47
2023-10-08T23:51:42.964Z,3.90
2023-10-08T23:54:25.112Z,3.60
2023-10-08T23:56:58.720Z,3.75
2023-10-08T23:59:41.027Z,4.45
